Time;durP1;ratioP1;P1;durP2;ratioP2;P2;SDS_P1;SDS_P2;PMS_P1;PMS_P2;Temp;Humidity;BMP_temperature;BMP_pressure;BME280_temperature;BME280_humidity;BME280_pressure;Samples;Min_cycle;Max_cycle;Signal;HPM_P1;HPM_P2
2022/10/14 00:02:19;;;;;;;;;;;16.10;99.90;;;;;;7339493;19;111337;-73
2022/10/14 00:04:46;;;;;;;;;;;16.10;99.90;;;;;;7339015;19;108974;-73
2022/10/14 00:07:13;;;;;;;;;;;16.10;99.90;;;;;;7344037;19;109263;-74
2022/10/14 00:09:41;;;;;;;;;;;16.00;99.90;;;;;;7335242;19;108696;-73
2022/10/14 00:12:08;;;;;;;;;;;15.90;99.90;;;;;;7340498;19;109601;-73
2022/10/14 00:14:35;;;;;;;;;;;15.90;99.90;;;;;;7339756;19;111521;-73
2022/10/14 00:17:01;;;;;;;;;;;15.90;99.90;;;;;;7337834;19;110683;-73
2022/10/14 00:19:28;;;;;;;;;;;15.90;99.90;;;;;;7338878;19;108577;-73
2022/10/14 00:21:55;;;;;;;;;;;15.90;99.90;;;;;;7338702;19;110284;-73
2022/10/14 00:24:22;;;;;;;;;;;15.80;99.90;;;;;;7339709;19;108431;-73
2022/10/14 00:26:49;;;;;;;;;;;15.80;99.90;;;;;;7338001;19;114232;-73
2022/10/14 00:29:17;;;;;;;;;;;15.80;99.90;;;;;;7342092;19;111308;-73
2022/10/14 00:31:45;;;;;;;;;;;15.80;99.90;;;;;;7339693;19;109061;-72
2022/10/14 00:34:14;;;;;;;;;;;15.80;99.90;;;;;;7337575;19;109240;-73
2022/10/14 00:36:42;;;;;;;;;;;15.80;99.90;;;;;;7337075;19;108898;-73
2022/10/14 00:39:09;;;;;;;;;;;15.80;99.90;;;;;;7341046;19;110408;-73
2022/10/14 00:41:36;;;;;;;;;;;15.80;99.90;;;;;;7335925;19;111201;-73
2022/10/14 00:44:05;;;;;;;;;;;15.80;99.90;;;;;;7337492;19;108541;-73
2022/10/14 00:46:34;;;;;;;;;;;15.80;99.90;;;;;;7337518;19;108771;-73
2022/10/14 00:49:05;;;;;;;;;;;15.80;99.90;;;;;;7337975;19;111506;-73
2022/10/14 00:51:32;;;;;;;;;;;15.80;99.90;;;;;;7341130;19;109243;-73
2022/10/14 00:53:59;;;;;;;;;;;15.80;99.90;;;;;;7338611;19;112088;-73
2022/10/14 00:56:27;;;;;;;;;;;15.70;99.90;;;;;;7336392;19;109621;-73
2022/10/14 00:58:55;;;;;;;;;;;15.70;99.90;;;;;;7337139;19;109495;-73
2022/10/14 01:01:22;;;;;;;;;;;15.60;99.90;;;;;;7337723;19;110483;-75
2022/10/14 01:03:49;;;;;;;;;;;15.60;99.90;;;;;;7337495;19;108512;-73
2022/10/14 01:06:22;;;;;;;;;;;15.70;99.90;;;;;;7333227;19;109447;-73
2022/10/14 01:08:59;;;;;;;;;;;15.60;99.90;;;;;;7338251;19;111549;-73
2022/10/14 01:11:41;;;;;;;;;;;15.60;99.90;;;;;;7336246;19;108924;-74
2022/10/14 01:14:27;;;;;;;;;;;15.60;99.90;;;;;;7340432;19;109957;-73
2022/10/14 01:16:58;;;;;;;;;;;15.60;99.90;;;;;;7335588;19;108543;-73
2022/10/14 01:19:44;;;;;;;;;;;15.60;99.90;;;;;;7335015;19;110935;-73
2022/10/14 01:22:20;;;;;;;;;;;15.60;99.90;;;;;;7335883;19;110324;-73
2022/10/14 01:24:54;;;;;;;;;;;15.60;99.90;;;;;;7336599;19;108433;-73
2022/10/14 01:27:20;;;;;;;;;;;15.60;99.90;;;;;;7335448;19;109444;-73
2022/10/14 01:30:05;;;;;;;;;;;15.60;99.90;;;;;;7334959;19;109324;-73
2022/10/14 01:32:51;;;;;;;;;;;15.60;99.90;;;;;;7335552;19;108939;-72
2022/10/14 01:35:22;;;;;;;;;;;15.60;99.90;;;;;;7338698;19;109517;-73
2022/10/14 01:38:00;;;;;;;;;;;15.70;99.90;;;;;;7334928;19;108508;-73
2022/10/14 01:40:41;;;;;;;;;;;15.70;99.90;;;;;;7334471;19;109391;-73
2022/10/14 01:43:09;;;;;;;;;;;15.70;99.90;;;;;;7334225;19;110376;-74
2022/10/14 01:45:38;;;;;;;;;;;15.70;99.90;;;;;;7333851;19;108980;-73
2022/10/14 01:48:05;;;;;;;;;;;15.70;99.90;;;;;;7335498;19;109285;-73
2022/10/14 01:50:34;;;;;;;;;;;15.70;99.90;;;;;;7334279;19;110236;-73
2022/10/14 01:53:02;;;;;;;;;;;15.60;99.90;;;;;;7333810;19;109039;-73
2022/10/14 01:55:31;;;;;;;;;;;15.60;99.90;;;;;;7333462;19;109245;-73
2022/10/14 01:57:59;;;;;;;;;;;15.60;99.90;;;;;;7339680;19;110403;-73
2022/10/14 02:00:26;;;;;;;;;;;15.60;99.90;;;;;;7335217;19;109249;-74
2022/10/14 02:02:53;;;;;;;;;;;15.60;99.90;;;;;;7334057;19;110270;-73
2022/10/14 02:05:26;;;;;;;;;;;15.60;99.90;;;;;;7334778;19;108479;-73
2022/10/14 02:08:11;;;;;;;;;;;15.60;99.90;;;;;;7334347;19;109483;-73
2022/10/14 02:10:53;;;;;;;;;;;15.60;99.90;;;;;;7334732;19;110163;-73
2022/10/14 02:13:46;;;;;;;;;;;15.60;99.90;;;;;;7334777;19;108817;-73
2022/10/14 02:16:13;;;;;;;;;;;15.50;99.90;;;;;;7333766;19;109723;-73
2022/10/14 02:18:47;;;;;;;;;;;15.50;99.90;;;;;;7334844;19;110288;-73
2022/10/14 02:21:27;;;;;;;;;;;15.60;99.90;;;;;;7338395;19;109425;-73
2022/10/14 02:24:01;;;;;;;;;;;15.60;99.90;;;;;;7333265;19;110326;-73
2022/10/14 02:26:29;;;;;;;;;;;15.50;99.90;;;;;;7333321;19;110402;-73
2022/10/14 02:28:56;;;;;;;;;;;15.50;99.90;;;;;;7334948;19;109629;-73
2022/10/14 02:31:23;;;;;;;;;;;15.50;99.90;;;;;;7334415;19;110613;-73
2022/10/14 02:33:52;;;;;;;;;;;15.50;99.90;;;;;;7333495;19;109971;-73
2022/10/14 02:36:20;;;;;;;;;;;15.50;99.90;;;;;;7332957;19;109688;-73
2022/10/14 02:38:48;;;;;;;;;;;15.50;99.90;;;;;;7334310;19;110409;-73
2022/10/14 02:41:17;;;;;;;;;;;15.50;99.90;;;;;;7347368;19;109867;-72
2022/10/14 02:43:44;;;;;;;;;;;15.50;99.90;;;;;;7354879;19;110389;-72
2022/10/14 02:46:11;;;;;;;;;;;15.50;99.90;;;;;;7345679;19;108563;-73
2022/10/14 02:48:38;;;;;;;;;;;15.50;99.90;;;;;;7347813;19;108936;-73
2022/10/14 02:51:05;;;;;;;;;;;15.50;99.90;;;;;;7346320;19;111544;-73
2022/10/14 02:53:32;;;;;;;;;;;15.50;99.90;;;;;;7347406;19;108987;-73
2022/10/14 02:55:59;;;;;;;;;;;15.50;99.90;;;;;;7347794;19;109717;-73
2022/10/14 02:58:25;;;;;;;;;;;15.50;99.90;;;;;;7346452;19;111404;-73
2022/10/14 03:00:52;;;;;;;;;;;15.40;99.90;;;;;;7346793;19;109239;-73
2022/10/14 03:03:20;;;;;;;;;;;15.40;99.90;;;;;;7345748;19;113472;-74
2022/10/14 03:05:47;;;;;;;;;;;15.40;99.90;;;;;;7355147;19;110324;-73
2022/10/14 03:08:14;;;;;;;;;;;15.40;99.90;;;;;;7348686;19;109061;-73
2022/10/14 03:10:44;;;;;;;;;;;15.50;99.90;;;;;;7347950;19;110495;-73
2022/10/14 03:13:11;;;;;;;;;;;15.40;99.90;;;;;;7344981;19;109250;-73
2022/10/14 03:15:38;;;;;;;;;;;15.40;99.90;;;;;;7348251;19;109563;-73
2022/10/14 03:18:05;;;;;;;;;;;15.40;99.90;;;;;;7347354;19;110305;-73
2022/10/14 03:20:32;;;;;;;;;;;15.40;99.90;;;;;;7346618;19;109790;-73
2022/10/14 03:22:58;;;;;;;;;;;15.40;99.90;;;;;;7347964;19;109804;-73
2022/10/14 03:25:26;;;;;;;;;;;15.40;99.90;;;;;;7346417;19;110170;-73
2022/10/14 03:27:53;;;;;;;;;;;15.40;99.90;;;;;;7351113;19;108729;-73
2022/10/14 03:30:20;;;;;;;;;;;15.50;99.90;;;;;;7346012;19;109567;-73
2022/10/14 03:32:47;;;;;;;;;;;15.50;99.90;;;;;;7346041;19;109227;-73
2022/10/14 03:35:14;;;;;;;;;;;15.50;99.90;;;;;;7348211;19;109973;-73
2022/10/14 03:37:41;;;;;;;;;;;15.50;99.90;;;;;;7346365;19;110397;-73
2022/10/14 03:40:08;;;;;;;;;;;15.50;99.90;;;;;;7347204;19;108747;-73
2022/10/14 03:42:35;;;;;;;;;;;15.50;99.90;;;;;;7347951;19;110083;-73
2022/10/14 03:45:02;;;;;;;;;;;15.50;99.90;;;;;;7347133;19;110177;-73
2022/10/14 03:47:29;;;;;;;;;;;15.50;99.90;;;;;;7349997;19;112293;-73
2022/10/14 03:49:56;;;;;;;;;;;15.50;99.90;;;;;;7344034;19;110107;-74
2022/10/14 03:52:23;;;;;;;;;;;15.50;99.90;;;;;;7336906;19;109518;-73
2022/10/14 03:54:50;;;;;;;;;;;15.50;99.90;;;;;;7339323;19;109370;-73
2022/10/14 03:57:17;;;;;;;;;;;15.40;99.90;;;;;;7338758;19;109346;-73
2022/10/14 03:59:44;;;;;;;;;;;15.50;99.90;;;;;;7336739;19;109469;-72
2022/10/14 04:02:11;;;;;;;;;;;15.50;99.90;;;;;;7339568;19;109139;-72
2022/10/14 04:04:38;;;;;;;;;;;15.60;99.90;;;;;;7338827;19;110159;-73
2022/10/14 04:07:05;;;;;;;;;;;15.60;99.90;;;;;;7339733;19;108914;-73
2022/10/14 04:09:32;;;;;;;;;;;15.60;99.90;;;;;;7339664;19;109382;-73
2022/10/14 04:11:58;;;;;;;;;;;15.60;99.90;;;;;;7337967;19;108443;-74
2022/10/14 04:14:25;;;;;;;;;;;15.50;99.90;;;;;;7338385;19;109218;-73
2022/10/14 04:16:52;;;;;;;;;;;15.50;99.90;;;;;;7339335;19;110674;-73
2022/10/14 04:19:19;;;;;;;;;;;15.50;99.90;;;;;;7336697;19;108637;-73
2022/10/14 04:21:46;;;;;;;;;;;15.50;99.90;;;;;;7337754;19;110158;-74
2022/10/14 04:24:14;;;;;;;;;;;15.50;99.90;;;;;;7340532;19;109232;-73
2022/10/14 04:26:41;;;;;;;;;;;15.50;99.90;;;;;;7337811;19;108992;-73
2022/10/14 04:29:08;;;;;;;;;;;15.50;99.90;;;;;;7339088;19;108291;-73
2022/10/14 04:31:34;;;;;;;;;;;15.50;99.90;;;;;;7343007;19;110286;-73
2022/10/14 04:34:01;;;;;;;;;;;15.50;99.90;;;;;;7336310;19;109599;-73
2022/10/14 04:36:28;;;;;;;;;;;15.50;99.90;;;;;;7337228;19;110318;-73
2022/10/14 04:38:55;;;;;;;;;;;15.50;99.90;;;;;;7338392;19;109312;-72
2022/10/14 04:41:22;;;;;;;;;;;15.50;99.90;;;;;;7335633;19;109214;-73
2022/10/14 04:43:49;;;;;;;;;;;15.50;99.90;;;;;;7337032;19;110403;-73
2022/10/14 04:46:16;;;;;;;;;;;15.50;99.90;;;;;;7337111;19;109177;-73
2022/10/14 04:48:43;;;;;;;;;;;15.40;99.90;;;;;;7337312;19;109336;-73
2022/10/14 04:51:10;;;;;;;;;;;15.50;99.90;;;;;;7334018;19;109346;-73
2022/10/14 04:53:36;;;;;;;;;;;15.50;99.90;;;;;;7342765;19;108951;-73
2022/10/14 04:56:03;;;;;;;;;;;15.50;99.90;;;;;;7336342;19;109924;-73
2022/10/14 04:58:30;;;;;;;;;;;15.50;99.90;;;;;;7336103;19;108920;-73
2022/10/14 05:00:57;;;;;;;;;;;15.50;99.90;;;;;;7336619;19;108917;-73
2022/10/14 05:03:24;;;;;;;;;;;15.50;99.90;;;;;;7335137;19;110735;-73
2022/10/14 05:05:51;;;;;;;;;;;15.50;99.90;;;;;;7335917;19;108749;-73
2022/10/14 05:08:18;;;;;;;;;;;15.50;99.90;;;;;;7337843;19;108350;-73
2022/10/14 05:10:46;;;;;;;;;;;15.50;99.90;;;;;;7334662;19;110635;-73
2022/10/14 05:13:13;;;;;;;;;;;15.50;99.90;;;;;;7333787;19;109097;-73
2022/10/14 05:15:40;;;;;;;;;;;15.50;99.90;;;;;;7342373;19;108618;-73
2022/10/14 05:18:09;;;;;;;;;;;15.50;99.90;;;;;;7334472;19;109013;-73
2022/10/14 05:20:37;;;;;;;;;;;15.50;99.90;;;;;;7337695;19;109864;-73
2022/10/14 05:23:05;;;;;;;;;;;15.40;99.90;;;;;;7334578;19;111012;-73
2022/10/14 05:25:31;;;;;;;;;;;15.40;99.90;;;;;;7331197;19;108493;-73
2022/10/14 05:27:58;;;;;;;;;;;15.50;99.90;;;;;;7337559;19;109337;-73
2022/10/14 05:30:25;;;;;;;;;;;15.50;99.90;;;;;;7335405;19;110307;-73
2022/10/14 05:33:00;;;;;;;;;;;15.40;99.90;;;;;;7336179;19;108379;-73
2022/10/14 05:35:27;;;;;;;;;;;15.40;99.90;;;;;;7333378;19;109011;-73
2022/10/14 05:38:13;;;;;;;;;;;15.50;99.90;;;;;;7338992;19;109078;-73
2022/10/14 05:40:41;;;;;;;;;;;15.50;99.90;;;;;;7335693;19;109330;-72
2022/10/14 05:43:08;;;;;;;;;;;15.50;99.90;;;;;;7335575;19;110696;-73
2022/10/14 05:45:35;;;;;;;;;;;15.50;99.90;;;;;;7337072;19;109310;-72
2022/10/14 05:48:02;;;;;;;;;;;15.50;99.90;;;;;;7334771;19;108803;-73
2022/10/14 05:50:29;;;;;;;;;;;15.60;99.90;;;;;;7332826;19;110315;-73
2022/10/14 05:52:55;;;;;;;;;;;15.60;99.90;;;;;;7335006;19;108971;-73
2022/10/14 05:55:22;;;;;;;;;;;15.60;99.90;;;;;;7332289;19;108886;-73
2022/10/14 05:57:53;;;;;;;;;;;15.60;99.90;;;;;;7339666;19;110800;-73
2022/10/14 06:00:20;;;;;;;;;;;15.60;99.90;;;;;;7335335;19;109630;-73
2022/10/14 06:02:51;;;;;;;;;;;15.60;99.90;;;;;;7334993;19;109803;-73
2022/10/14 06:05:18;;;;;;;;;;;15.60;99.90;;;;;;7333353;19;108727;-73
2022/10/14 06:07:45;;;;;;;;;;;15.60;99.90;;;;;;7335096;19;109647;-73
2022/10/14 06:10:12;;;;;;;;;;;15.60;99.90;;;;;;7334678;19;110055;-73
2022/10/14 06:12:39;;;;;;;;;;;15.60;99.90;;;;;;7332881;19;108285;-73
2022/10/14 06:15:06;;;;;;;;;;;15.50;99.90;;;;;;7331671;19;108778;-73
2022/10/14 06:17:33;;;;;;;;;;;15.50;99.90;;;;;;7337034;19;111068;-73
2022/10/14 06:20:00;;;;;;;;;;;15.50;99.90;;;;;;7338762;19;109057;-73
2022/10/14 06:22:27;;;;;;;;;;;15.50;99.90;;;;;;7331454;19;110328;-72
2022/10/14 06:24:53;;;;;;;;;;;15.50;99.90;;;;;;7336492;19;110493;-73
2022/10/14 06:27:20;;;;;;;;;;;15.50;99.90;;;;;;7332709;19;109222;-73
2022/10/14 06:29:47;;;;;;;;;;;15.50;99.90;;;;;;7332020;19;113404;-73
2022/10/14 06:32:14;;;;;;;;;;;15.50;99.90;;;;;;7332763;19;109305;-73
2022/10/14 06:34:41;;;;;;;;;;;15.60;99.90;;;;;;7332614;19;109618;-73
2022/10/14 06:37:08;;;;;;;;;;;15.60;99.90;;;;;;7333595;19;109220;-73
2022/10/14 06:39:35;;;;;;;;;;;15.60;99.90;;;;;;7333568;19;108680;-73
2022/10/14 06:42:02;;;;;;;;;;;15.60;99.90;;;;;;7338856;19;108239;-73
2022/10/14 06:44:29;;;;;;;;;;;15.60;99.90;;;;;;7333308;19;109506;-73
2022/10/14 06:46:55;;;;;;;;;;;15.60;99.90;;;;;;7335045;19;108983;-72
2022/10/14 06:49:22;;;;;;;;;;;15.60;99.90;;;;;;7333451;19;110614;-74
2022/10/14 06:51:49;;;;;;;;;;;15.60;99.90;;;;;;7334713;19;109046;-72
2022/10/14 06:54:16;;;;;;;;;;;15.60;99.90;;;;;;7334056;19;109168;-72
2022/10/14 06:56:43;;;;;;;;;;;15.60;99.90;;;;;;7331084;19;114391;-73
2022/10/14 06:59:10;;;;;;;;;;;15.70;99.90;;;;;;7333284;19;110107;-73
2022/10/14 07:01:38;;;;;;;;;;;15.70;99.90;;;;;;7335034;19;109182;-73
2022/10/14 07:04:05;;;;;;;;;;;15.60;99.90;;;;;;7337338;19;109118;-73
2022/10/14 07:06:32;;;;;;;;;;;15.60;99.90;;;;;;7333781;19;109218;-73
2022/10/14 07:08:58;;;;;;;;;;;15.70;99.90;;;;;;7332193;19;109163;-74
2022/10/14 07:11:26;;;;;;;;;;;15.70;99.90;;;;;;7330497;19;109168;-73
2022/10/14 07:13:53;;;;;;;;;;;15.70;99.90;;;;;;7334315;19;109723;-73
2022/10/14 07:16:20;;;;;;;;;;;15.70;99.90;;;;;;7331989;19;110234;-73
2022/10/14 07:18:47;;;;;;;;;;;15.70;99.90;;;;;;7334626;19;108421;-73
2022/10/14 07:21:14;;;;;;;;;;;15.70;99.90;;;;;;7333930;19;109802;-73
2022/10/14 07:23:41;;;;;;;;;;;15.70;99.90;;;;;;7333479;19;111403;-73
2022/10/14 07:26:08;;;;;;;;;;;15.70;99.90;;;;;;7342410;19;108431;-73
2022/10/14 07:28:35;;;;;;;;;;;15.70;99.90;;;;;;7342503;19;110152;-73
2022/10/14 07:31:04;;;;;;;;;;;15.80;99.90;;;;;;7337915;19;108858;-72
2022/10/14 07:33:31;;;;;;;;;;;15.80;99.90;;;;;;7339282;19;109314;-73
2022/10/14 07:36:02;;;;;;;;;;;15.80;99.90;;;;;;7339036;19;111191;-73
2022/10/14 07:38:30;;;;;;;;;;;15.80;99.90;;;;;;7337746;19;114557;-73
2022/10/14 07:40:57;;;;;;;;;;;15.80;99.90;;;;;;7338745;19;108930;-73
2022/10/14 07:43:23;;;;;;;;;;;15.90;99.90;;;;;;7337962;19;110409;-74
2022/10/14 07:45:50;;;;;;;;;;;15.90;99.90;;;;;;7341272;19;109785;-73
2022/10/14 07:48:17;;;;;;;;;;;15.90;99.90;;;;;;7343011;19;109234;-73
2022/10/14 07:51:05;;;;;;;;;;;16.00;99.90;;;;;;7340496;19;109092;-73
2022/10/14 07:53:32;;;;;;;;;;;16.00;99.90;;;;;;7341108;19;109060;-73
2022/10/14 07:55:59;;;;;;;;;;;16.00;99.90;;;;;;7340468;19;110028;-73
2022/10/14 07:58:27;;;;;;;;;;;16.10;99.90;;;;;;7339781;19;109003;-73
2022/10/14 08:00:55;;;;;;;;;;;16.10;99.90;;;;;;7337175;19;111685;-74
2022/10/14 08:03:23;;;;;;;;;;;16.10;99.90;;;;;;7339356;19;110307;-73
2022/10/14 08:05:50;;;;;;;;;;;16.20;99.90;;;;;;7338748;19;109678;-73
2022/10/14 08:08:17;;;;;;;;;;;16.20;99.90;;;;;;7342513;19;109813;-72
2022/10/14 08:10:44;;;;;;;;;;;16.20;99.90;;;;;;7339895;19;108840;-71
2022/10/14 08:13:11;;;;;;;;;;;16.20;99.90;;;;;;7336294;19;110291;-72
2022/10/14 08:15:40;;;;;;;;;;;16.20;99.90;;;;;;7339053;19;109998;-72
2022/10/14 08:18:08;;;;;;;;;;;16.20;99.90;;;;;;7338054;19;109556;-72
2022/10/14 08:20:35;;;;;;;;;;;16.20;99.90;;;;;;7339139;19;109042;-71
2022/10/14 08:23:02;;;;;;;;;;;16.30;99.90;;;;;;7338170;19;108859;-72
2022/10/14 08:25:29;;;;;;;;;;;16.30;99.90;;;;;;7336821;19;110107;-72
2022/10/14 08:27:57;;;;;;;;;;;16.30;99.90;;;;;;7341208;19;112535;-72
2022/10/14 08:30:24;;;;;;;;;;;16.30;99.90;;;;;;7341504;19;110078;-71
2022/10/14 08:32:52;;;;;;;;;;;16.30;99.90;;;;;;7337771;19;109224;-72
2022/10/14 08:35:19;;;;;;;;;;;16.30;99.90;;;;;;7335801;19;110389;-74
2022/10/14 08:37:59;;;;;;;;;;;16.40;99.90;;;;;;7337172;19;108714;-72
2022/10/14 08:40:32;;;;;;;;;;;16.40;99.90;;;;;;7337887;19;112917;-72
2022/10/14 08:43:20;;;;;;;;;;;16.40;99.90;;;;;;7339148;19;110824;-72
2022/10/14 08:45:50;;;;;;;;;;;16.50;99.90;;;;;;7338710;19;109231;-73
2022/10/14 08:48:20;;;;;;;;;;;16.50;99.90;;;;;;7338787;19;110311;-72
2022/10/14 08:50:49;;;;;;;;;;;16.60;99.90;;;;;;7337762;19;112333;-72
2022/10/14 08:53:18;;;;;;;;;;;16.60;99.90;;;;;;7342278;19;108379;-74
2022/10/14 08:55:54;;;;;;;;;;;16.60;99.90;;;;;;7336329;19;110385;-72
2022/10/14 08:58:27;;;;;;;;;;;16.60;99.90;;;;;;7336919;19;110519;-72
2022/10/14 09:00:55;;;;;;;;;;;16.60;99.90;;;;;;7337450;19;112465;-73
2022/10/14 09:03:23;;;;;;;;;;;16.70;99.90;;;;;;7331934;19;110503;-72
2022/10/14 09:05:54;;;;;;;;;;;16.70;99.90;;;;;;7337332;19;108699;-74
2022/10/14 09:08:27;;;;;;;;;;;16.70;99.90;;;;;;7337314;19;108735;-72
2022/10/14 09:10:54;;;;;;;;;;;16.80;99.90;;;;;;7337090;19;110610;-72
2022/10/14 09:13:33;;;;;;;;;;;16.80;99.90;;;;;;7336539;19;109135;-72
2022/10/14 09:16:07;;;;;;;;;;;16.90;99.90;;;;;;7342345;19;108722;-72
2022/10/14 09:18:43;;;;;;;;;;;16.90;99.90;;;;;;7336445;19;108872;-72
2022/10/14 09:21:20;;;;;;;;;;;16.90;99.90;;;;;;7337068;19;110352;-72
2022/10/14 09:24:19;;;;;;;;;;;16.90;99.90;;;;;;7336030;19;109655;-71
2022/10/14 09:26:47;;;;;;;;;;;16.90;99.90;;;;;;7337129;19;110874;-73
2022/10/14 09:29:20;;;;;;;;;;;16.90;99.90;;;;;;7336130;19;109317;-73
2022/10/14 09:31:47;;;;;;;;;;;17.00;99.90;;;;;;7337304;19;109592;-72
2022/10/14 09:34:26;;;;;;;;;;;16.90;99.90;;;;;;7337644;19;109763;-76
2022/10/14 09:36:53;;;;;;;;;;;17.00;99.90;;;;;;7337726;19;109194;-78
2022/10/14 09:39:20;;;;;;;;;;;17.00;99.90;;;;;;7341739;19;110275;-79
2022/10/14 09:41:48;;;;;;;;;;;17.00;99.90;;;;;;7337426;19;108604;-77
2022/10/14 09:44:20;;;;;;;;;;;17.10;99.90;;;;;;7335617;19;110356;-79
2022/10/14 09:46:48;;;;;;;;;;;17.10;99.90;;;;;;7338484;19;108302;-75
2022/10/14 09:49:17;;;;;;;;;;;17.10;99.90;;;;;;7333581;19;108736;-78
2022/10/14 09:51:44;;;;;;;;;;;17.10;99.90;;;;;;7338154;19;109593;-78
2022/10/14 09:54:21;;;;;;;;;;;17.10;99.90;;;;;;7337073;19;108338;-77
2022/10/14 09:56:48;;;;;;;;;;;17.20;99.90;;;;;;7335939;19;111405;-77
2022/10/14 09:59:20;;;;;;;;;;;17.20;99.90;;;;;;7334647;19;110677;-77
2022/10/14 10:01:48;;;;;;;;;;;17.20;99.90;;;;;;7343269;19;108818;-77
2022/10/14 10:04:27;;;;;;;;;;;17.30;99.90;;;;;;7334370;19;109741;-74
2022/10/14 10:06:54;;;;;;;;;;;17.30;99.90;;;;;;7332484;19;109681;-75
2022/10/14 10:09:21;;;;;;;;;;;17.30;99.90;;;;;;7332043;19;112561;-73
2022/10/14 10:11:48;;;;;;;;;;;17.30;99.90;;;;;;7333388;19;111122;-75
2022/10/14 10:14:19;;;;;;;;;;;17.30;99.90;;;;;;7334798;19;109334;-73
2022/10/14 10:16:47;;;;;;;;;;;17.40;99.90;;;;;;7335960;19;109180;-73
2022/10/14 10:19:26;;;;;;;;;;;17.40;99.90;;;;;;7331435;19;110071;-73
2022/10/14 10:22:13;;;;;;;;;;;17.40;99.90;;;;;;7341530;19;108962;-72
2022/10/14 10:24:40;;;;;;;;;;;17.40;99.90;;;;;;7336128;19;110300;-72
2022/10/14 10:27:24;;;;;;;;;;;17.40;99.90;;;;;;7335413;19;109797;-73
2022/10/14 10:29:55;;;;;;;;;;;17.50;99.90;;;;;;7335906;19;109561;-73
2022/10/14 10:32:33;;;;;;;;;;;17.50;99.90;;;;;;7334859;19;109619;-75
2022/10/14 10:35:03;;;;;;;;;;;17.50;99.90;;;;;;7335023;19;109109;-74
2022/10/14 10:37:32;;;;;;;;;;;17.50;99.90;;;;;;7332273;19;110431;-72
2022/10/14 10:40:07;;;;;;;;;;;17.50;99.90;;;;;;7336547;19;110415;-72
2022/10/14 10:42:55;;;;;;;;;;;17.60;99.90;;;;;;7336790;19;109096;-72
2022/10/14 10:45:28;;;;;;;;;;;17.60;99.90;;;;;;7335008;19;108830;-73
2022/10/14 10:48:01;;;;;;;;;;;17.60;99.90;;;;;;7335602;19;108391;-72
2022/10/14 10:50:31;;;;;;;;;;;17.60;99.90;;;;;;7332082;19;109130;-72
2022/10/14 10:53:15;;;;;;;;;;;17.60;99.90;;;;;;7334331;19;110599;-72
2022/10/14 10:55:45;;;;;;;;;;;17.60;99.90;;;;;;7334836;19;108295;-72
2022/10/14 10:58:51;;;;;;;;;;;17.60;99.90;;;;;;7331295;19;110238;-74
2022/10/14 11:01:19;;;;;;;;;;;17.70;99.90;;;;;;7335487;19;110186;-72
2022/10/14 11:04:04;;;;;;;;;;;17.60;99.90;;;;;;7340221;19;108392;-73
2022/10/14 11:12:41;;;;;;;;;;;17.70;99.90;;;;;;7339565;19;109266;-67
2022/10/14 11:15:16;;;;;;;;;;;17.70;99.90;;;;;;7341901;19;111312;-66
2022/10/14 11:17:59;;;;;;;;;;;17.70;99.90;;;;;;7342221;19;109672;-67
2022/10/14 11:20:35;;;;;;;;;;;17.70;99.90;;;;;;7343578;19;109098;-67
2022/10/14 11:23:14;;;;;;;;;;;17.70;99.90;;;;;;7339550;19;110067;-66
2022/10/14 11:25:48;;;;;;;;;;;17.70;99.90;;;;;;7341566;19;109665;-66
2022/10/14 11:28:44;;;;;;;;;;;17.70;99.90;;;;;;7344023;19;109645;-66
2022/10/14 11:31:29;;;;;;;;;;;17.70;99.90;;;;;;7339068;19;109443;-67
2022/10/14 11:34:14;;;;;;;;;;;17.70;99.90;;;;;;7346438;19;110514;-67
2022/10/14 11:36:44;;;;;;;;;;;17.70;99.90;;;;;;7339358;19;109214;-68
2022/10/14 11:39:16;;;;;;;;;;;17.70;99.90;;;;;;7340088;19;110809;-67
2022/10/14 11:41:46;;;;;;;;;;;17.60;99.90;;;;;;7339776;19;108841;-67
2022/10/14 11:44:32;;;;;;;;;;;17.60;99.90;;;;;;7339346;19;109592;-67
2022/10/14 11:47:03;;;;;;;;;;;17.60;99.90;;;;;;7341671;19;109425;-68
2022/10/14 11:49:41;;;;;;;;;;;17.70;99.90;;;;;;7337812;19;108493;-67
2022/10/14 11:52:13;;;;;;;;;;;17.70;99.90;;;;;;7340772;19;110581;-67
2022/10/14 11:54:46;;;;;;;;;;;17.70;99.90;;;;;;7341820;19;109159;-67
2022/10/14 11:57:12;;;;;;;;;;;17.70;99.90;;;;;;7344053;19;108409;-67
2022/10/14 11:59:45;;;;;;;;;;;17.70;99.90;;;;;;7340475;19;114735;-67
2022/10/14 12:02:20;;;;;;;;;;;17.70;99.90;;;;;;7338158;19;109146;-67
2022/10/14 12:04:56;;;;;;;;;;;17.80;99.90;;;;;;7340001;19;109110;-67
2022/10/14 12:07:27;;;;;;;;;;;17.80;99.90;;;;;;7338450;19;108593;-67
2022/10/14 12:09:56;;;;;;;;;;;17.90;99.90;;;;;;7341376;19;109118;-67
2022/10/14 12:12:27;;;;;;;;;;;17.90;99.90;;;;;;7335179;19;109838;-67
2022/10/14 12:14:56;;;;;;;;;;;17.90;99.90;;;;;;7338112;19;108545;-67
2022/10/14 12:17:29;;;;;;;;;;;18.00;99.90;;;;;;7343598;19;109193;-67
2022/10/14 12:19:57;;;;;;;;;;;18.10;99.90;;;;;;7339495;19;108605;-67
2022/10/14 12:22:26;;;;;;;;;;;18.20;99.90;;;;;;7338360;19;109091;-67
2022/10/14 12:24:54;;;;;;;;;;;18.10;99.90;;;;;;7340068;19;110607;-67
2022/10/14 12:27:23;;;;;;;;;;;18.20;99.90;;;;;;7339874;19;108935;-67
2022/10/14 12:29:51;;;;;;;;;;;18.20;99.90;;;;;;7338561;19;109394;-67
2022/10/14 12:32:20;;;;;;;;;;;18.30;99.90;;;;;;7338017;19;110366;-67
2022/10/14 12:34:52;;;;;;;;;;;18.30;99.90;;;;;;7339661;19;109327;-67
2022/10/14 12:37:28;;;;;;;;;;;18.30;99.90;;;;;;7339723;19;110964;-66
2022/10/14 12:40:00;;;;;;;;;;;18.20;99.90;;;;;;7340969;19;109960;-68
2022/10/14 12:42:32;;;;;;;;;;;18.30;99.90;;;;;;7337621;19;112021;-67
2022/10/14 12:45:13;;;;;;;;;;;18.20;99.90;;;;;;7341185;19;109788;-67
2022/10/14 12:47:40;;;;;;;;;;;18.30;99.90;;;;;;7340021;19;108665;-66
2022/10/14 12:50:13;;;;;;;;;;;18.30;99.90;;;;;;7340036;19;108616;-66
2022/10/14 12:52:43;;;;;;;;;;;18.30;99.90;;;;;;7339307;19;109963;-67
2022/10/14 12:55:15;;;;;;;;;;;18.40;99.90;;;;;;7336532;19;108648;-66
2022/10/14 12:57:42;;;;;;;;;;;18.40;99.90;;;;;;7336664;19;109986;-67
2022/10/14 13:00:21;;;;;;;;;;;18.40;99.90;;;;;;7338901;19;110073;-67
2022/10/14 13:02:53;;;;;;;;;;;18.50;99.90;;;;;;7342858;19;108292;-66
2022/10/14 13:05:29;;;;;;;;;;;18.60;99.90;;;;;;7335394;19;109794;-66
2022/10/14 13:08:29;;;;;;;;;;;18.60;99.90;;;;;;7338077;19;108559;-66
2022/10/14 13:10:58;;;;;;;;;;;18.70;99.90;;;;;;7333682;19;108495;-67
2022/10/14 13:13:37;;;;;;;;;;;18.80;99.90;;;;;;7335453;19;109877;-66
2022/10/14 13:16:05;;;;;;;;;;;18.90;99.90;;;;;;7337679;19;108482;-66
2022/10/14 13:18:34;;;;;;;;;;;18.90;99.90;;;;;;7337705;19;109497;-66
2022/10/14 13:21:01;;;;;;;;;;;19.00;99.90;;;;;;7338918;19;110758;-67
2022/10/14 13:23:34;;;;;;;;;;;19.00;99.90;;;;;;7337279;19;108696;-66
2022/10/14 13:26:07;;;;;;;;;;;19.00;99.90;;;;;;7343999;19;109667;-66
2022/10/14 13:28:41;;;;;;;;;;;19.00;99.90;;;;;;7338372;19;110448;-66
2022/10/14 13:31:14;;;;;;;;;;;19.10;99.90;;;;;;7338871;19;109102;-66
2022/10/14 13:34:04;;;;;;;;;;;19.10;99.90;;;;;;7337335;19;111138;-67
2022/10/14 13:36:35;;;;;;;;;;;19.10;99.90;;;;;;7336351;19;108964;-67
2022/10/14 13:39:02;;;;;;;;;;;19.10;99.90;;;;;;7336063;19;108947;-67
2022/10/14 13:41:29;;;;;;;;;;;19.10;99.90;;;;;;7334343;19;114095;-67
2022/10/14 13:43:58;;;;;;;;;;;19.10;99.90;;;;;;7338299;19;108948;-66
2022/10/14 13:46:25;;;;;;;;;;;19.10;99.90;;;;;;7335522;19;109150;-66
2022/10/14 13:48:55;;;;;;;;;;;19.00;99.90;;;;;;7343507;19;109360;-66
2022/10/14 13:51:42;;;;;;;;;;;19.00;99.90;;;;;;7336899;19;109141;-66
2022/10/14 13:54:22;;;;;;;;;;;18.90;99.90;;;;;;7337865;19;110834;-66
2022/10/14 13:56:58;;;;;;;;;;;18.80;99.90;;;;;;7337688;19;108657;-67
2022/10/14 13:59:46;;;;;;;;;;;18.80;99.90;;;;;;7338488;19;109080;-66
2022/10/14 14:02:33;;;;;;;;;;;18.80;99.90;;;;;;7335593;19;110386;-66
2022/10/14 14:05:00;;;;;;;;;;;18.80;99.90;;;;;;7336762;19;108570;-66
2022/10/14 14:07:33;;;;;;;;;;;18.80;99.90;;;;;;7335954;19;109313;-67
2022/10/14 14:10:22;;;;;;;;;;;18.70;99.90;;;;;;7338278;19;110863;-66
2022/10/14 14:12:49;;;;;;;;;;;18.80;99.90;;;;;;7341426;19;108777;-66
2022/10/14 14:15:24;;;;;;;;;;;18.70;99.90;;;;;;7332686;19;109340;-67
2022/10/14 14:17:51;;;;;;;;;;;18.70;99.90;;;;;;7335994;19;109275;-66
2022/10/14 14:20:20;;;;;;;;;;;18.70;99.90;;;;;;7334719;19;109050;-67
2022/10/14 14:22:47;;;;;;;;;;;18.60;99.90;;;;;;7336063;19;110546;-67
2022/10/14 14:25:22;;;;;;;;;;;18.60;99.90;;;;;;7334917;19;108705;-67
2022/10/14 14:28:01;;;;;;;;;;;18.70;99.90;;;;;;7336619;19;109499;-67
2022/10/14 14:30:31;;;;;;;;;;;18.60;99.90;;;;;;7336359;19;110389;-67